Time;durP1;ratioP1;P1;durP2;ratioP2;P2;SDS_P1;SDS_P2;PMS_P1;PMS_P2;Temp;Humidity;BMP_temperature;BMP_pressure;BME280_temperature;BME280_humidity;BME280_pressure;Samples;Min_cycle;Max_cycle;Signal;HPM_P1;HPM_P2
2021/09/16 00:01:14;;;;;;;0.60;0.60;;;11.30;99.90;;;;;;4994413;28;20217;-74
2021/09/16 00:03:40;;;;;;;0.70;0.70;;;11.30;99.90;;;;;;5011071;28;20203;-74
2021/09/16 00:06:06;;;;;;;0.70;0.70;;;11.20;99.90;;;;;;5012323;28;20222;-73
2021/09/16 00:08:31;;;;;;;0.60;0.60;;;11.20;99.90;;;;;;5012039;28;20281;-74
2021/09/16 00:10:57;;;;;;;0.60;0.60;;;11.20;99.90;;;;;;5010999;28;20221;-74
2021/09/16 00:13:23;;;;;;;0.50;0.50;;;11.10;99.90;;;;;;5011027;28;20217;-74
2021/09/16 00:15:49;;;;;;;0.50;0.50;;;11.10;99.90;;;;;;5012182;28;20226;-74
2021/09/16 00:18:14;;;;;;;0.63;0.63;;;11.10;99.90;;;;;;5010846;28;20677;-74
2021/09/16 00:20:40;;;;;;;0.57;0.57;;;11.00;99.90;;;;;;5010569;28;20224;-74
2021/09/16 00:23:06;;;;;;;0.50;0.50;;;11.00;99.90;;;;;;4994532;28;20290;-73
2021/09/16 00:25:32;;;;;;;0.50;0.50;;;11.00;99.90;;;;;;5013008;28;20202;-73
2021/09/16 00:27:57;;;;;;;0.60;0.60;;;11.00;99.90;;;;;;5011346;28;20202;-74
2021/09/16 00:30:23;;;;;;;0.60;0.60;;;11.00;99.90;;;;;;4994354;28;20203;-73
2021/09/16 00:32:49;;;;;;;0.80;0.75;;;11.00;99.90;;;;;;5011895;28;20234;-77
2021/09/16 00:35:14;;;;;;;0.60;0.60;;;10.90;99.90;;;;;;5011185;28;20317;-74
2021/09/16 00:37:41;;;;;;;0.60;0.60;;;10.90;99.90;;;;;;5012745;28;20206;-73
2021/09/16 00:40:08;;;;;;;0.60;0.60;;;10.90;99.90;;;;;;5011587;28;20203;-73
2021/09/16 00:42:33;;;;;;;0.57;0.57;;;11.00;99.90;;;;;;4995333;28;20210;-74
2021/09/16 00:44:59;;;;;;;0.60;0.60;;;11.00;99.90;;;;;;5012967;28;20203;-73
2021/09/16 00:47:25;;;;;;;0.50;0.50;;;11.00;99.90;;;;;;5012464;28;20218;-73
2021/09/16 00:49:50;;;;;;;0.60;0.60;;;11.00;99.90;;;;;;5010304;28;20210;-73
2021/09/16 00:52:17;;;;;;;0.60;0.60;;;11.00;99.90;;;;;;4994955;28;20230;-73
2021/09/16 00:54:44;;;;;;;0.52;0.52;;;11.00;99.90;;;;;;5011367;28;20209;-73
2021/09/16 00:57:12;;;;;;;0.60;0.60;;;11.00;99.90;;;;;;4992701;28;20202;-73
2021/09/16 00:59:38;;;;;;;0.60;0.60;;;11.00;99.90;;;;;;4992344;28;20670;-74
2021/09/16 01:02:04;;;;;;;0.60;0.60;;;11.00;99.90;;;;;;5014975;22;20207;-71
2021/09/16 01:04:31;;;;;;;0.70;0.70;;;11.00;99.90;;;;;;5091211;28;20213;-70
2021/09/16 01:06:58;;;;;;;0.50;0.50;;;10.90;99.90;;;;;;5089929;28;20627;-71
2021/09/16 01:09:24;;;;;;;1.23;1.13;;;10.90;99.90;;;;;;5076410;28;20196;-70
2021/09/16 01:11:51;;;;;;;0.60;0.60;;;10.90;99.90;;;;;;5092624;28;20199;-71
2021/09/16 01:14:28;;;;;;;0.60;0.60;;;10.80;99.90;;;;;;5092692;28;20212;-71
2021/09/16 01:16:54;;;;;;;0.60;0.60;;;10.80;99.90;;;;;;5074682;28;20234;-72
2021/09/16 01:19:21;;;;;;;0.60;0.60;;;10.80;99.90;;;;;;5074937;28;20197;-72
2021/09/16 01:21:48;;;;;;;0.60;0.60;;;10.80;99.90;;;;;;5071530;28;20321;-71
2021/09/16 01:24:14;;;;;;;0.60;0.60;;;10.90;99.90;;;;;;5074779;28;20239;-70
2021/09/16 01:26:43;;;;;;;0.65;0.65;;;10.90;99.90;;;;;;5075553;28;20217;-70
2021/09/16 01:29:11;;;;;;;0.60;0.60;;;10.80;99.90;;;;;;5074775;28;20215;-70
2021/09/16 01:31:41;;;;;;;0.50;0.50;;;10.80;99.90;;;;;;5090938;28;20200;-70
2021/09/16 01:34:08;;;;;;;0.70;0.70;;;10.80;99.90;;;;;;5075746;28;20212;-70
2021/09/16 01:36:35;;;;;;;0.60;0.60;;;10.80;99.90;;;;;;5089960;28;20245;-70
2021/09/16 01:39:04;;;;;;;0.60;0.60;;;10.80;99.90;;;;;;5078815;28;20232;-70
2021/09/16 01:41:30;;;;;;;0.50;0.50;;;10.70;99.90;;;;;;5075620;28;20634;-70
2021/09/16 01:43:56;;;;;;;0.60;0.60;;;10.80;99.90;;;;;;5075511;28;20226;-70
2021/09/16 01:46:21;;;;;;;0.60;0.60;;;10.80;99.90;;;;;;5068551;28;20200;-71
2021/09/16 01:48:47;;;;;;;0.50;0.50;;;10.70;99.90;;;;;;5080636;28;20203;-70
2021/09/16 01:51:13;;;;;;;0.57;0.57;;;10.70;99.90;;;;;;5090672;28;20202;-69
2021/09/16 01:53:39;;;;;;;0.63;0.63;;;10.70;99.90;;;;;;5084435;28;20221;-70
2021/09/16 01:56:05;;;;;;;0.60;0.60;;;10.60;99.90;;;;;;5074292;28;20596;-70
2021/09/16 01:58:31;;;;;;;0.60;0.60;;;10.60;99.90;;;;;;5075627;28;20211;-71
2021/09/16 02:00:57;;;;;;;0.60;0.60;;;10.60;99.90;;;;;;5077588;28;20199;-71
2021/09/16 02:03:23;;;;;;;0.60;0.60;;;10.60;99.90;;;;;;5087553;28;20219;-71
2021/09/16 02:05:49;;;;;;;0.80;0.80;;;10.60;99.90;;;;;;5072396;28;20204;-71
2021/09/16 02:08:15;;;;;;;0.60;0.60;;;10.60;99.90;;;;;;5079034;28;20292;-70
2021/09/16 02:10:40;;;;;;;0.70;0.70;;;10.60;99.90;;;;;;5078410;28;20208;-70
2021/09/16 02:13:06;;;;;;;0.50;0.50;;;10.50;99.90;;;;;;5080858;28;20791;-70
2021/09/16 02:15:32;;;;;;;0.60;0.60;;;10.50;99.90;;;;;;5080579;28;20189;-71
2021/09/16 02:17:57;;;;;;;0.60;0.60;;;10.50;99.90;;;;;;5081614;28;20565;-70
2021/09/16 02:20:24;;;;;;;0.70;0.70;;;10.40;99.90;;;;;;5100663;28;20594;-70
2021/09/16 02:22:49;;;;;;;0.50;0.50;;;10.40;99.90;;;;;;5085029;28;20677;-70
2021/09/16 02:25:15;;;;;;;0.50;0.50;;;10.30;99.90;;;;;;5074745;28;20257;-71
2021/09/16 02:27:41;;;;;;;0.60;0.60;;;10.40;99.90;;;;;;5081582;28;20287;-71
2021/09/16 02:30:07;;;;;;;0.57;0.57;;;10.40;99.90;;;;;;5081677;28;20196;-70
2021/09/16 02:32:33;;;;;;;0.50;0.50;;;10.40;99.90;;;;;;5081413;28;20211;-70
2021/09/16 02:34:59;;;;;;;0.70;0.70;;;10.30;99.90;;;;;;5081711;28;20209;-70
2021/09/16 02:37:25;;;;;;;0.55;0.55;;;10.30;99.90;;;;;;5075349;28;20208;-71
2021/09/16 02:39:51;;;;;;;0.47;0.47;;;10.30;99.90;;;;;;5089784;28;20219;-70
2021/09/16 02:42:16;;;;;;;0.60;0.60;;;10.30;99.90;;;;;;5076152;28;20200;-70
2021/09/16 02:44:42;;;;;;;0.70;0.70;;;10.20;99.90;;;;;;5085924;28;20262;-70
2021/09/16 02:47:08;;;;;;;0.60;0.60;;;10.20;99.90;;;;;;5081107;28;20234;-70
2021/09/16 02:49:33;;;;;;;0.60;0.60;;;10.20;99.90;;;;;;5074938;28;20254;-70
2021/09/16 02:51:59;;;;;;;0.70;0.70;;;10.10;99.90;;;;;;5081513;28;20764;-70
2021/09/16 02:54:25;;;;;;;0.60;0.60;;;10.10;99.90;;;;;;5079880;28;20208;-70
2021/09/16 02:56:50;;;;;;;0.60;0.60;;;10.10;99.90;;;;;;5079880;28;20202;-71
2021/09/16 02:59:16;;;;;;;0.60;0.60;;;10.10;99.90;;;;;;5080603;28;20189;-70
2021/09/16 03:01:42;;;;;;;0.52;0.52;;;10.00;99.90;;;;;;5090858;28;20693;-70
2021/09/16 03:04:08;;;;;;;0.60;0.60;;;10.00;99.90;;;;;;5095463;28;20219;-70
2021/09/16 03:06:33;;;;;;;0.60;0.60;;;10.00;99.90;;;;;;5076752;28;20208;-70
2021/09/16 03:08:59;;;;;;;0.60;0.60;;;10.00;99.90;;;;;;5080161;28;20306;-70
2021/09/16 03:11:25;;;;;;;0.60;0.60;;;9.90;99.90;;;;;;5081410;28;20201;-71
2021/09/16 03:13:51;;;;;;;0.60;0.60;;;10.00;99.90;;;;;;5094692;28;20212;-70
2021/09/16 03:16:16;;;;;;;0.50;0.50;;;10.00;99.90;;;;;;5084359;28;20254;-71
2021/09/16 03:18:42;;;;;;;0.60;0.60;;;9.90;99.90;;;;;;5072873;28;20207;-71
2021/09/16 03:21:08;;;;;;;0.55;0.55;;;9.90;99.90;;;;;;5088155;28;20207;-70
2021/09/16 03:23:34;;;;;;;0.70;0.70;;;9.90;99.90;;;;;;5070360;28;20189;-71
2021/09/16 03:25:59;;;;;;;0.60;0.60;;;9.90;99.90;;;;;;5085856;28;20204;-70
2021/09/16 03:28:25;;;;;;;0.60;0.60;;;9.80;99.90;;;;;;5086618;28;20220;-70
2021/09/16 03:30:51;;;;;;;0.60;0.60;;;9.80;99.90;;;;;;5076191;28;20670;-70
2021/09/16 03:33:17;;;;;;;0.95;0.80;;;9.70;99.90;;;;;;5075035;28;20690;-70
2021/09/16 03:35:42;;;;;;;0.60;0.60;;;9.80;99.90;;;;;;5091299;28;20201;-71
2021/09/16 03:38:08;;;;;;;0.60;0.60;;;9.80;99.90;;;;;;5078506;28;20249;-70
2021/09/16 03:40:34;;;;;;;0.60;0.60;;;9.70;99.90;;;;;;5093501;28;20566;-70
2021/09/16 03:42:59;;;;;;;0.50;0.50;;;9.70;99.90;;;;;;5076041;28;20266;-70
2021/09/16 03:45:25;;;;;;;0.60;0.60;;;9.70;99.90;;;;;;5081471;28;20200;-70
2021/09/16 03:47:51;;;;;;;0.70;0.70;;;9.70;99.90;;;;;;5076699;28;20212;-70
2021/09/16 03:50:17;;;;;;;0.70;0.70;;;9.70;99.90;;;;;;5076796;28;20208;-71
2021/09/16 03:52:43;;;;;;;0.70;0.70;;;9.70;99.90;;;;;;5077576;28;20219;-72
2021/09/16 03:55:09;;;;;;;0.70;0.70;;;9.70;99.90;;;;;;5092879;28;20200;-70
2021/09/16 03:57:39;;;;;;;0.60;0.60;;;9.70;99.90;;;;;;5077804;28;20777;-70
2021/09/16 04:00:06;;;;;;;0.60;0.60;;;9.70;99.90;;;;;;5077267;28;20204;-70
2021/09/16 04:02:32;;;;;;;0.60;0.60;;;9.70;99.90;;;;;;5089789;28;20222;-70
2021/09/16 04:04:58;;;;;;;0.70;0.70;;;9.70;99.90;;;;;;5082286;28;20291;-71
2021/09/16 04:07:23;;;;;;;0.60;0.60;;;9.60;99.90;;;;;;5075788;28;20660;-70
2021/09/16 04:09:49;;;;;;;0.50;0.50;;;9.70;99.90;;;;;;5086427;28;20192;-70
2021/09/16 04:12:15;;;;;;;0.60;0.60;;;9.70;99.90;;;;;;5073483;28;20197;-70
2021/09/16 04:14:40;;;;;;;0.57;0.57;;;9.60;99.90;;;;;;5075544;28;20639;-70
2021/09/16 04:17:06;;;;;;;0.60;0.60;;;9.70;99.90;;;;;;5077110;28;20201;-71
2021/09/16 04:19:32;;;;;;;0.60;0.60;;;9.70;99.90;;;;;;5081336;28;20271;-70
2021/09/16 04:21:58;;;;;;;0.70;0.70;;;9.60;99.90;;;;;;5090024;28;20201;-71
2021/09/16 04:24:23;;;;;;;0.70;0.70;;;9.60;99.90;;;;;;5078981;28;20204;-70
2021/09/16 04:26:49;;;;;;;0.60;0.60;;;9.60;99.90;;;;;;5092229;28;20200;-70
2021/09/16 04:29:15;;;;;;;0.70;0.70;;;9.50;99.90;;;;;;5075450;28;20204;-71
2021/09/16 04:31:41;;;;;;;0.70;0.70;;;9.50;99.90;;;;;;5075505;28;20636;-72
2021/09/16 04:34:07;;;;;;;0.60;0.60;;;9.50;99.90;;;;;;5074187;28;20212;-73
2021/09/16 04:36:33;;;;;;;0.60;0.60;;;9.50;99.90;;;;;;5076094;28;20211;-69
2021/09/16 04:38:58;;;;;;;0.70;0.70;;;9.50;99.90;;;;;;5076158;28;20675;-70
2021/09/16 04:41:24;;;;;;;0.70;0.70;;;9.50;99.90;;;;;;5072112;28;20207;-70
2021/09/16 04:43:50;;;;;;;0.60;0.60;;;9.50;99.90;;;;;;5076701;28;20213;-70
2021/09/16 04:46:15;;;;;;;0.60;0.60;;;9.50;99.90;;;;;;5076276;28;20211;-70
2021/09/16 04:48:41;;;;;;;0.65;0.65;;;9.50;99.90;;;;;;5070882;28;20211;-70
2021/09/16 04:51:07;;;;;;;0.60;0.60;;;9.40;99.90;;;;;;5087448;28;20208;-72
2021/09/16 04:53:33;;;;;;;0.70;0.70;;;9.50;99.90;;;;;;5070129;28;20236;-72
2021/09/16 04:55:58;;;;;;;0.73;0.73;;;9.40;99.90;;;;;;5076373;28;20193;-72
2021/09/16 04:58:24;;;;;;;0.70;0.70;;;9.40;99.90;;;;;;5069984;28;20205;-72
2021/09/16 05:00:50;;;;;;;0.60;0.60;;;9.30;99.90;;;;;;5076646;28;20604;-71
2021/09/16 05:03:15;;;;;;;0.70;0.70;;;9.40;99.90;;;;;;5080425;28;20220;-72
2021/09/16 05:05:41;;;;;;;0.60;0.60;;;9.40;99.90;;;;;;5093089;28;20208;-71
2021/09/16 05:08:07;;;;;;;0.60;0.60;;;9.40;99.90;;;;;;5091768;28;20279;-72
2021/09/16 05:10:33;;;;;;;0.90;0.85;;;9.40;99.90;;;;;;5091389;28;20208;-72
2021/09/16 05:12:58;;;;;;;0.75;0.75;;;9.40;99.90;;;;;;5072141;28;20204;-70
2021/09/16 05:15:24;;;;;;;0.63;0.63;;;9.30;99.90;;;;;;5073222;28;20193;-72
2021/09/16 05:17:50;;;;;;;0.60;0.60;;;9.30;99.90;;;;;;5075189;28;20269;-71
2021/09/16 05:20:16;;;;;;;0.55;0.55;;;9.30;99.90;;;;;;5074381;28;20258;-71
2021/09/16 05:22:41;;;;;;;0.60;0.60;;;9.30;99.90;;;;;;5057053;28;20215;-72
2021/09/16 05:25:07;;;;;;;0.60;0.60;;;9.30;99.90;;;;;;5092263;28;20200;-72
2021/09/16 05:27:33;;;;;;;0.60;0.60;;;9.30;99.90;;;;;;5091352;28;20279;-72
2021/09/16 05:29:59;;;;;;;0.60;0.60;;;9.40;99.90;;;;;;5069641;28;20288;-71
2021/09/16 05:32:27;;;;;;;0.60;0.60;;;9.40;99.90;;;;;;5087640;28;20196;-70
2021/09/16 05:34:55;;;;;;;0.60;0.60;;;9.40;99.90;;;;;;5079511;28;20193;-72
2021/09/16 05:37:21;;;;;;;0.52;0.52;;;9.40;99.90;;;;;;5084802;28;20609;-71
2021/09/16 05:39:47;;;;;;;0.52;0.52;;;9.40;99.90;;;;;;5080134;28;20216;-71
2021/09/16 05:42:12;;;;;;;0.60;0.60;;;9.50;99.90;;;;;;5082807;28;20201;-71
2021/09/16 05:44:39;;;;;;;0.65;0.65;;;9.50;99.90;;;;;;5075507;28;20672;-71
2021/09/16 05:47:04;;;;;;;0.70;0.70;;;9.50;99.90;;;;;;5075665;28;20307;-71
2021/09/16 05:49:30;;;;;;;0.70;0.70;;;9.50;99.90;;;;;;5074258;28;20216;-72
2021/09/16 05:51:56;;;;;;;0.70;0.70;;;9.40;99.90;;;;;;5073997;28;20216;-71
2021/09/16 05:54:21;;;;;;;0.50;0.50;;;9.40;99.90;;;;;;5090736;28;20290;-71
2021/09/16 05:56:47;;;;;;;0.85;0.70;;;9.40;99.90;;;;;;5091172;28;20212;-71
2021/09/16 05:59:16;;;;;;;0.50;0.50;;;9.40;99.90;;;;;;5092234;28;20196;-72
2021/09/16 06:01:42;;;;;;;0.60;0.60;;;9.50;99.90;;;;;;5091171;28;20191;-71
2021/09/16 06:04:08;;;;;;;0.57;0.57;;;9.50;99.90;;;;;;5073454;28;20227;-71
2021/09/16 06:06:33;;;;;;;0.70;0.70;;;9.50;99.90;;;;;;5072813;28;20246;-72
2021/09/16 06:08:59;;;;;;;0.65;0.65;;;9.50;99.90;;;;;;5074605;28;20201;-72
2021/09/16 06:11:25;;;;;;;0.70;0.70;;;9.40;99.90;;;;;;5074892;28;20670;-71
2021/09/16 06:13:54;;;;;;;0.80;0.80;;;9.50;99.90;;;;;;5074840;28;20312;-72
2021/09/16 06:16:21;;;;;;;0.60;0.60;;;9.40;99.90;;;;;;5075090;28;20680;-72
2021/09/16 06:18:47;;;;;;;0.70;0.70;;;9.40;99.90;;;;;;5077544;28;20193;-72
2021/09/16 06:21:12;;;;;;;0.80;0.80;;;9.40;99.90;;;;;;5082399;28;20204;-70
2021/09/16 06:23:38;;;;;;;0.70;0.70;;;9.50;99.90;;;;;;5090741;28;20552;-73
2021/09/16 06:26:04;;;;;;;0.70;0.70;;;9.50;99.90;;;;;;5091908;28;20203;-72
2021/09/16 06:28:29;;;;;;;0.55;0.55;;;9.50;99.90;;;;;;5080718;28;20237;-71
2021/09/16 06:30:55;;;;;;;0.60;0.60;;;9.60;99.90;;;;;;5082465;28;20208;-72
2021/09/16 06:33:21;;;;;;;0.60;0.60;;;9.50;99.90;;;;;;5090170;28;20206;-72
2021/09/16 06:35:47;;;;;;;0.50;0.50;;;9.50;99.90;;;;;;5090679;28;20222;-71
2021/09/16 06:38:13;;;;;;;0.70;0.70;;;9.50;99.90;;;;;;5089544;28;20654;-71
2021/09/16 06:40:38;;;;;;;0.60;0.60;;;9.60;99.90;;;;;;5080165;28;20209;-71
2021/09/16 06:43:04;;;;;;;0.50;0.50;;;9.60;99.90;;;;;;5073897;28;20201;-71
2021/09/16 06:45:30;;;;;;;0.70;0.70;;;9.60;99.90;;;;;;5075490;28;20235;-72
2021/09/16 06:47:56;;;;;;;0.60;0.60;;;9.70;99.90;;;;;;5072400;28;20224;-71
2021/09/16 06:50:21;;;;;;;0.98;0.65;;;9.70;99.90;;;;;;5091392;28;20204;-72
2021/09/16 06:52:47;;;;;;;0.60;0.60;;;9.70;99.90;;;;;;5072488;28;20247;-71
2021/09/16 06:55:13;;;;;;;0.60;0.60;;;9.70;99.90;;;;;;5093827;28;20576;-71
2021/09/16 06:57:38;;;;;;;1.25;1.15;;;9.70;99.90;;;;;;5095203;28;20286;-72
2021/09/16 07:00:05;;;;;;;0.60;0.60;;;9.80;99.90;;;;;;5094304;28;20249;-72
2021/09/16 07:02:31;;;;;;;0.80;0.80;;;9.80;99.90;;;;;;5072058;28;20659;-72
2021/09/16 07:04:57;;;;;;;0.70;0.70;;;9.80;99.90;;;;;;5076723;28;20211;-72
2021/09/16 07:07:23;;;;;;;0.73;0.73;;;9.80;99.90;;;;;;5063840;28;20204;-72
2021/09/16 07:09:48;;;;;;;0.55;0.55;;;9.80;99.90;;;;;;5088200;28;20570;-72
2021/09/16 07:12:14;;;;;;;0.50;0.50;;;9.80;99.90;;;;;;5079437;28;20295;-72
2021/09/16 07:14:40;;;;;;;0.60;0.60;;;9.70;99.90;;;;;;5092862;28;20219;-71
2021/09/16 07:17:06;;;;;;;0.60;0.60;;;9.70;99.90;;;;;;5085314;28;20208;-71
2021/09/16 07:19:32;;;;;;;0.73;0.73;;;9.70;99.90;;;;;;5076332;28;20200;-71
2021/09/16 07:21:58;;;;;;;0.60;0.60;;;9.60;99.90;;;;;;5087137;28;20208;-71
2021/09/16 07:24:24;;;;;;;0.60;0.60;;;9.70;99.90;;;;;;5072274;28;20766;-70
2021/09/16 07:26:50;;;;;;;0.60;0.60;;;9.70;99.90;;;;;;5078364;28;20283;-71
2021/09/16 07:29:21;;;;;;;0.60;0.60;;;9.70;99.90;;;;;;5075009;28;20196;-73
2021/09/16 07:31:48;;;;;;;0.60;0.60;;;9.80;99.90;;;;;;5093724;28;20225;-72
2021/09/16 07:34:15;;;;;;;0.80;0.80;;;9.80;99.90;;;;;;5090106;28;20553;-72
2021/09/16 07:36:44;;;;;;;0.60;0.60;;;9.80;99.90;;;;;;5077354;28;20295;-72
2021/09/16 07:39:13;;;;;;;0.60;0.60;;;9.80;99.90;;;;;;5094950;28;20246;-72
2021/09/16 07:41:39;;;;;;;0.63;0.63;;;9.80;99.90;;;;;;5075784;28;20204;-72
2021/09/16 07:44:05;;;;;;;0.50;0.50;;;9.80;99.90;;;;;;5074759;28;20283;-72
2021/09/16 07:46:31;;;;;;;0.60;0.60;;;9.80;99.90;;;;;;5076491;28;20208;-72
2021/09/16 07:48:58;;;;;;;0.60;0.60;;;9.90;99.90;;;;;;5092911;28;20188;-72
2021/09/16 07:51:24;;;;;;;0.88;0.88;;;9.90;99.90;;;;;;5072639;28;20295;-72
2021/09/16 07:53:49;;;;;;;0.70;0.70;;;10.00;99.90;;;;;;5071480;28;20320;-73
2021/09/16 07:56:15;;;;;;;0.73;0.73;;;10.00;99.90;;;;;;5086765;28;20257;-73
2021/09/16 07:58:44;;;;;;;1.05;0.95;;;10.10;99.90;;;;;;5074069;28;20295;-73
2021/09/16 08:01:11;;;;;;;0.50;0.50;;;10.10;99.90;;;;;;5072551;28;20213;-73
2021/09/16 08:03:37;;;;;;;0.60;0.60;;;10.10;99.90;;;;;;5077288;28;20231;-71
2021/09/16 08:06:03;;;;;;;0.50;0.50;;;10.10;99.90;;;;;;5086084;28;20667;-72
2021/09/16 08:08:29;;;;;;;0.60;0.60;;;10.10;99.90;;;;;;5083882;28;20215;-72
2021/09/16 08:10:55;;;;;;;0.50;0.50;;;10.10;99.90;;;;;;5082906;28;20204;-73
2021/09/16 08:13:21;;;;;;;0.50;0.50;;;10.10;99.90;;;;;;5092753;28;20225;-72
2021/09/16 08:15:47;;;;;;;0.55;0.55;;;10.20;99.90;;;;;;5094137;28;20192;-73
2021/09/16 08:18:12;;;;;;;0.60;0.60;;;10.20;99.90;;;;;;5094164;28;20207;-72
2021/09/16 08:20:44;;;;;;;0.60;0.60;;;10.20;99.90;;;;;;5092364;28;20291;-73
2021/09/16 08:23:10;;;;;;;0.82;0.82;;;10.20;99.90;;;;;;5094168;28;20200;-72
2021/09/16 08:25:36;;;;;;;0.50;0.50;;;10.20;99.90;;;;;;5092364;28;20283;-73
2021/09/16 08:28:02;;;;;;;0.60;0.60;;;10.30;99.90;;;;;;5073104;28;20227;-72
2021/09/16 08:30:28;;;;;;;0.68;0.68;;;10.20;99.90;;;;;;5092472;28;20212;-72
2021/09/16 08:32:53;;;;;;;0.90;0.90;;;10.20;99.90;;;;;;5088487;28;20204;-73
2021/09/16 08:35:19;;;;;;;0.93;0.93;;;10.20;99.90;;;;;;5089428;28;20204;-72
2021/09/16 08:37:46;;;;;;;0.60;0.60;;;10.20;99.90;;;;;;5093800;28;20196;-72
2021/09/16 08:40:13;;;;;;;1.20;1.00;;;10.20;99.90;;;;;;5091317;28;20200;-73
2021/09/16 08:42:41;;;;;;;0.63;0.63;;;10.30;99.90;;;;;;5073788;28;20205;-72
2021/09/16 08:45:11;;;;;;;0.55;0.55;;;10.20;99.90;;;;;;5074218;28;20221;-74
2021/09/16 08:47:38;;;;;;;0.50;0.50;;;10.20;99.90;;;;;;5073783;28;20192;-74
2021/09/16 08:50:04;;;;;;;0.90;0.65;;;10.20;99.90;;;;;;5092191;28;20716;-74
2021/09/16 08:52:36;;;;;;;0.20;0.20;;;10.30;99.90;;;;;;5092226;28;20214;-73
2021/09/16 08:55:04;;;;;;;0.20;0.20;;;10.30;99.90;;;;;;5070363;28;20205;-73
2021/09/16 08:57:32;;;;;;;0.20;0.20;;;10.30;99.90;;;;;;5088045;28;20200;-73
2021/09/16 08:59:58;;;;;;;0.17;0.17;;;10.20;99.90;;;;;;5071104;28;20205;-73
2021/09/16 09:02:24;;;;;;;0.20;0.20;;;10.30;99.90;;;;;;5090513;28;20272;-73
2021/09/16 09:04:49;;;;;;;0.30;0.30;;;10.30;99.90;;;;;;5079469;28;20212;-73
2021/09/16 09:07:19;;;;;;;0.50;0.50;;;10.30;99.90;;;;;;5068754;28;20197;-73
2021/09/16 09:09:45;;;;;;;0.25;0.25;;;10.30;99.90;;;;;;5075013;28;20641;-73
2021/09/16 09:12:15;;;;;;;0.30;0.30;;;10.30;99.90;;;;;;5084386;28;20204;-73
2021/09/16 09:14:42;;;;;;;0.40;0.40;;;10.30;99.90;;;;;;5086415;28;20227;-73
2021/09/16 09:17:26;;;;;;;0.40;0.40;;;10.30;99.90;;;;;;5090576;28;20290;-71
2021/09/16 09:19:54;;;;;;;0.20;0.20;;;10.30;99.90;;;;;;5080306;28;20204;-70
2021/09/16 09:22:28;;;;;;;0.20;0.20;;;10.30;99.90;;;;;;5086523;28;20543;-72
2021/09/16 09:25:00;;;;;;;0.20;0.20;;;10.30;99.90;;;;;;5091668;28;20206;-72
2021/09/16 09:27:36;;;;;;;0.20;0.20;;;10.30;99.90;;;;;;5082912;28;20333;-72
2021/09/16 09:30:10;;;;;;;0.10;0.10;;;10.20;99.90;;;;;;5079460;28;20204;-72
2021/09/16 09:32:50;;;;;;;0.20;0.20;;;10.20;99.90;;;;;;5082607;28;20212;-72
2021/09/16 09:35:35;;;;;;;0.20;0.20;;;10.10;99.90;;;;;;5077187;28;20204;-73
2021/09/16 09:38:25;;;;;;;0.68;0.68;;;10.10;99.90;;;;;;5085418;28;20207;-73
2021/09/16 09:40:55;;;;;;;0.50;0.50;;;10.10;99.90;;;;;;5076874;28;20200;-72
2021/09/16 09:43:27;;;;;;;0.60;0.60;;;10.10;99.90;;;;;;5087933;28;20207;-72
2021/09/16 09:46:02;;;;;;;0.70;0.70;;;10.10;99.90;;;;;;5077566;28;20219;-72
2021/09/16 09:48:28;;;;;;;0.60;0.60;;;10.00;99.90;;;;;;5086516;28;20210;-73
2021/09/16 09:50:54;;;;;;;0.60;0.60;;;10.10;99.90;;;;;;5079976;28;20208;-72
2021/09/16 09:53:21;;;;;;;0.50;0.50;;;10.10;99.90;;;;;;5080515;28;20299;-72
2021/09/16 09:55:47;;;;;;;0.60;0.60;;;10.10;99.90;;;;;;5090002;28;20196;-72
2021/09/16 09:58:13;;;;;;;0.50;0.50;;;10.10;99.90;;;;;;5082954;28;20731;-73
2021/09/16 10:00:38;;;;;;;1.08;0.80;;;10.10;99.90;;;;;;5075408;28;20287;-73
2021/09/16 10:03:05;;;;;;;0.50;0.50;;;10.10;99.90;;;;;;5075208;28;20299;-72
2021/09/16 10:05:38;;;;;;;0.60;0.60;;;10.00;99.90;;;;;;5078988;28;20216;-72
2021/09/16 10:08:13;;;;;;;0.50;0.50;;;10.00;99.90;;;;;;5092394;28;20629;-73
2021/09/16 10:10:41;;;;;;;0.68;0.68;;;10.00;99.90;;;;;;5076048;28;20202;-72
2021/09/16 10:13:07;;;;;;;0.40;0.40;;;9.90;99.90;;;;;;5090615;28;20208;-71
2021/09/16 10:15:34;;;;;;;0.60;0.60;;;9.80;99.90;;;;;;5085873;28;20686;-71
2021/09/16 10:18:00;;;;;;;0.60;0.60;;;9.80;99.90;;;;;;5074065;28;20208;-72
2021/09/16 10:20:28;;;;;;;0.45;0.45;;;9.80;99.90;;;;;;5086624;28;20258;-72
2021/09/16 10:22:58;;;;;;;0.57;0.57;;;9.70;99.90;;;;;;5077107;28;20295;-71
2021/09/16 10:25:27;;;;;;;0.70;0.70;;;9.70;99.90;;;;;;5087769;28;20569;-70
2021/09/16 10:28:06;;;;;;;0.60;0.60;;;9.70;99.90;;;;;;5075995;28;20249;-71
2021/09/16 10:30:45;;;;;;;0.40;0.40;;;9.60;99.90;;;;;;5079416;28;20196;-70
2021/09/16 10:33:13;;;;;;;0.57;0.57;;;9.60;99.90;;;;;;5077959;28;20589;-72
2021/09/16 10:35:46;;;;;;;0.68;0.68;;;9.70;99.90;;;;;;5073912;28;20249;-70
2021/09/16 10:38:19;;;;;;;0.50;0.50;;;9.70;99.90;;;;;;5080539;28;20209;-72
2021/09/16 10:40:46;;;;;;;0.50;0.50;;;9.80;99.90;;;;;;5095950;28;20242;-72
2021/09/16 10:43:23;;;;;;;0.60;0.60;;;9.80;99.90;;;;;;5095585;28;20789;-72
2021/09/16 10:45:49;;;;;;;0.60;0.60;;;9.80;99.90;;;;;;5093334;28;20240;-72
2021/09/16 10:48:15;;;;;;;0.63;0.63;;;9.90;99.90;;;;;;5095086;28;20714;-72
2021/09/16 10:50:43;;;;;;;0.60;0.60;;;9.80;99.90;;;;;;5076912;28;20275;-72
2021/09/16 10:53:34;;;;;;;0.52;0.52;;;9.90;99.90;;;;;;5076337;28;20197;-71
2021/09/16 10:56:02;;;;;;;0.60;0.60;;;10.00;99.90;;;;;;5068147;28;20596;-72
2021/09/16 10:58:28;;;;;;;2.95;1.90;;;10.00;99.90;;;;;;5091069;28;20296;-72
2021/09/16 11:00:54;;;;;;;0.60;0.60;;;9.90;99.90;;;;;;5095257;28;20566;-72
2021/09/16 11:03:20;;;;;;;0.60;0.60;;;9.90;99.90;;;;;;5076071;28;20255;-72
2021/09/16 11:05:53;;;;;;;0.57;0.57;;;9.90;99.90;;;;;;5094370;28;20705;-72
2021/09/16 11:08:21;;;;;;;0.60;0.60;;;9.90;99.90;;;;;;5073976;28;20204;-71
2021/09/16 11:10:52;;;;;;;1.70;1.02;;;9.90;99.90;;;;;;5072944;28;20578;-71
2021/09/16 11:13:50;;;;;;;0.70;0.70;;;9.90;99.90;;;;;;5094405;28;20622;-71
2021/09/16 11:16:21;;;;;;;0.50;0.50;;;10.00;99.90;;;;;;5071352;28;20565;-72
2021/09/16 11:18:48;;;;;;;0.80;0.80;;;10.00;99.90;;;;;;5076059;28;20268;-72
2021/09/16 11:21:14;;;;;;;0.60;0.60;;;10.00;99.90;;;;;;5095222;28;20200;-72
2021/09/16 11:23:45;;;;;;;0.65;0.65;;;9.90;99.90;;;;;;5094088;28;20227;-72
2021/09/16 11:26:16;;;;;;;0.65;0.65;;;10.00;99.90;;;;;;5094644;28;20739;-71
2021/09/16 11:28:42;;;;;;;0.60;0.60;;;10.00;99.90;;;;;;5077000;28;20292;-73
2021/09/16 11:31:07;;;;;;;0.70;0.70;;;10.10;99.90;;;;;;5076974;28;20232;-72
2021/09/16 11:33:33;;;;;;;0.60;0.60;;;10.10;99.90;;;;;;5091442;28;20723;-73
2021/09/16 11:36:08;;;;;;;0.70;0.70;;;10.00;99.90;;;;;;5093448;28;20559;-72
2021/09/16 11:38:33;;;;;;;0.60;0.60;;;10.10;99.90;;;;;;5079896;28;20197;-73
2021/09/16 11:41:04;;;;;;;0.60;0.60;;;10.00;99.90;;;;;;5088418;28;20205;-71
2021/09/16 11:43:30;;;;;;;0.70;0.70;;;10.00;99.90;;;;;;5082161;28;20728;-71
2021/09/16 11:45:56;;;;;;;0.80;0.80;;;10.00;99.90;;;;;;5083814;28;20253;-72
2021/09/16 11:48:25;;;;;;;0.70;0.70;;;9.90;99.90;;;;;;5087203;28;20203;-72
2021/09/16 11:51:03;;;;;;;0.52;0.52;;;9.90;99.90;;;;;;5085393;28;20261;-72
2021/09/16 11:53:34;;;;;;;0.60;0.60;;;9.90;99.90;;;;;;5087237;28;20208;-72
2021/09/16 11:56:02;;;;;;;0.63;0.63;;;9.90;99.90;;;;;;5094563;28;20714;-72
2021/09/16 11:58:32;;;;;;;0.50;0.50;;;10.00;99.90;;;;;;5076020;28;20204;-72
2021/09/16 12:00:59;;;;;;;0.50;0.50;;;10.00;99.90;;;;;;5094167;28;20196;-72
2021/09/16 12:03:26;;;;;;;0.60;0.60;;;10.00;99.90;;;;;;5072264;28;20584;-72
2021/09/16 12:06:10;;;;;;;2.85;0.90;;;10.10;99.90;;;;;;5073622;28;20277;-73
2021/09/16 12:08:37;;;;;;;0.60;0.60;;;10.10;99.90;;;;;;5093950;28;20195;-73
2021/09/16 12:11:14;;;;;;;0.60;0.60;;;10.10;99.90;;;;;;5094011;28;20663;-72
2021/09/16 12:13:42;;;;;;;0.50;0.50;;;10.10;99.90;;;;;;5086146;28;20213;-72
2021/09/16 12:16:11;;;;;;;1.50;1.40;;;10.10;99.90;;;;;;5083419;28;20571;-72
2021/09/16 12:18:41;;;;;;;0.60;0.60;;;10.00;99.90;;;;;;5077045;28;20196;-71
2021/09/16 12:21:08;;;;;;;0.70;0.70;;;10.00;99.90;;;;;;5082049;28;20224;-71
2021/09/16 12:23:34;;;;;;;0.60;0.60;;;10.00;99.90;;;;;;5062428;28;20208;-71
2021/09/16 12:26:14;;;;;;;0.70;0.70;;;9.90;99.90;;;;;;5072117;28;20603;-72
2021/09/16 12:28:52;;;;;;;0.70;0.70;;;9.90;99.90;;;;;;5079857;28;20223;-71
2021/09/16 12:31:29;;;;;;;0.60;0.60;;;9.80;99.90;;;;;;5073051;28;20254;-73
2021/09/16 12:34:02;;;;;;;1.15;1.08;;;9.90;99.90;;;;;;5092272;28;20208;-73
2021/09/16 12:36:29;;;;;;;0.75;0.75;;;10.00;99.90;;;;;;5092286;28;20224;-72
2021/09/16 12:39:07;;;;;;;0.60;0.60;;;10.10;99.90;;;;;;5093561;28;20200;-72
2021/09/16 12:41:54;;;;;;;0.60;0.60;;;10.10;99.90;;;;;;5075069;28;20200;-72
2021/09/16 12:44:32;;;;;;;0.50;0.50;;;10.20;99.90;;;;;;5077462;28;20706;-74
2021/09/16 12:47:05;;;;;;;0.52;0.52;;;10.20;99.90;;;;;;5076978;28;20292;-73
2021/09/16 12:49:31;;;;;;;0.70;0.70;;;10.20;99.90;;;;;;5085488;28;20258;-73
2021/09/16 12:52:06;;;;;;;0.52;0.52;;;10.30;99.90;;;;;;5076346;28;20228;-73